Time,TemperatureF,DewpointF,PressureIn,WindDirection,WindDirectionDegrees,WindSpeedMPH,WindSpeedGustMPH,Humidity,HourlyPrecipIn,Conditions,Clouds,dailyrainin,SolarRadiationWatts/m^2,SoftwareType,DateUTC
2013-05-23 00:02:00,76.0,68.0,30.03,NE,40,4.0,6.0,77,0.00,,,0.00,0.000000,,2013-05-23 10:02:00,
2013-05-23 00:12:00,76.0,68.0,30.03,NE,40,4.0,6.0,77,0.00,,,0.00,0.000000,,2013-05-23 10:12:00,
2013-05-23 00:32:00,76.0,69.0,30.01,NE,54,4.0,6.0,78,0.00,,,0.00,0.000000,,2013-05-23 10:32:00,
2013-05-23 00:42:00,76.0,69.0,30.01,NE,54,4.0,6.0,78,0.00,,,0.00,0.000000,,2013-05-23 10:42:00,
2013-05-23 00:52:00,76.0,69.0,30.01,NE,54,4.0,6.0,78,0.00,,,0.00,0.000000,,2013-05-23 10:52:00,
2013-05-23 01:02:00,76.0,69.0,30.01,NE,54,4.0,6.0,78,0.00,,,0.00,0.000000,,2013-05-23 11:02:00,
2013-05-23 01:11:00,76.0,69.0,30.01,NE,54,4.0,6.0,78,0.00,,,0.00,0.000000,,2013-05-23 11:11:00,
2013-05-23 01:42:00,75.0,68.0,30.00,NNE,30,2.0,6.0,78,0.00,,,0.00,0.000000,,2013-05-23 11:42:00,
2013-05-23 01:52:00,75.0,68.0,30.00,NNE,30,2.0,6.0,78,0.00,,,0.00,0.000000,,2013-05-23 11:52:00,
2013-05-23 02:01:00,75.0,68.0,30.00,NNE,30,2.0,6.0,78,0.00,,,0.00,0.000000,,2013-05-23 12:01:00,
2013-05-23 02:11:00,75.0,68.0,30.00,NNE,30,2.0,6.0,78,0.00,,,0.00,0.000000,,2013-05-23 12:11:00,
2013-05-23 02:32:00,76.0,68.0,29.99,ESE,107,2.0,7.0,77,0.00,,,0.00,0.000000,,2013-05-23 12:32:00,
2013-05-23 02:42:00,76.0,68.0,29.99,ESE,107,2.0,7.0,77,0.00,,,0.00,0.000000,,2013-05-23 12:42:00,
2013-05-23 02:52:00,76.0,68.0,29.99,ESE,107,2.0,7.0,77,0.00,,,0.00,0.000000,,2013-05-23 12:52:00,
2013-05-23 03:01:00,76.0,68.0,29.99,ESE,107,2.0,7.0,77,0.00,,,0.00,0.000000,,2013-05-23 13:01:00,
2013-05-23 03:11:00,76.0,68.0,29.99,ESE,107,2.0,7.0,77,0.00,,,0.00,0.000000,,2013-05-23 13:11:00,
2013-05-23 03:32:00,74.0,67.0,29.98,ENE,71,2.0,5.0,80,0.00,,,0.00,0.000000,,2013-05-23 13:32:00,
2013-05-23 03:42:00,74.0,67.0,29.98,ENE,71,2.0,5.0,80,0.00,,,0.00,0.000000,,2013-05-23 13:42:00,
2013-05-23 03:52:00,74.0,67.0,29.98,ENE,71,2.0,5.0,80,0.00,,,0.00,0.000000,,2013-05-23 13:52:00,
2013-05-23 04:01:00,74.0,67.0,29.98,ENE,71,2.0,5.0,80,0.00,,,0.00,0.000000,,2013-05-23 14:01:00,
2013-05-23 04:11:00,74.0,67.0,29.98,ENE,71,2.0,5.0,80,0.00,,,0.00,0.000000,,2013-05-23 14:11:00,
2013-05-23 04:42:00,74.0,67.0,29.98,ENE,58,5.0,6.0,79,0.00,,,0.00,0.000000,,2013-05-23 14:42:00,
2013-05-23 04:52:00,74.0,67.0,29.98,ENE,58,5.0,6.0,79,0.00,,,0.00,0.000000,,2013-05-23 14:52:00,
2013-05-23 05:01:00,74.0,67.0,29.98,ENE,58,5.0,6.0,79,0.00,,,0.00,0.000000,,2013-05-23 15:01:00,
2013-05-23 05:11:00,74.0,67.0,29.98,ENE,58,5.0,6.0,79,0.00,,,0.00,0.000000,,2013-05-23 15:11:00,
2013-05-23 05:33:00,74.0,65.0,29.98,ENE,62,6.0,8.0,74,0.00,,,0.00,0.000000,,2013-05-23 15:33:00,
2013-05-23 05:43:00,74.0,65.0,29.98,ENE,62,6.0,8.0,74,0.00,,,0.00,0.000000,,2013-05-23 15:43:00,
2013-05-23 05:53:00,74.0,65.0,29.98,ENE,62,6.0,8.0,74,0.00,,,0.00,0.000000,,2013-05-23 15:53:00,
2013-05-23 06:03:00,74.0,65.0,29.98,ENE,62,6.0,8.0,74,0.00,,,0.00,0.000000,,2013-05-23 16:03:00,
2013-05-23 06:12:00,74.0,65.0,29.98,ENE,62,6.0,8.0,74,0.00,,,0.00,0.000000,,2013-05-23 16:12:00,
2013-05-23 06:34:00,74.0,64.0,29.99,ENE,66,5.0,8.0,72,0.00,,,0.00,9.000000,,2013-05-23 16:34:00,
2013-05-23 06:43:00,74.0,64.0,29.99,ENE,66,5.0,8.0,72,0.00,,,0.00,9.000000,,2013-05-23 16:43:00,
2013-05-23 06:52:00,74.0,64.0,29.99,ENE,66,5.0,8.0,72,0.00,,,0.00,9.000000,,2013-05-23 16:52:00,
2013-05-23 07:03:00,74.0,64.0,29.99,ENE,66,5.0,8.0,72,0.00,,,0.00,9.000000,,2013-05-23 17:03:00,
2013-05-23 07:11:00,74.0,64.0,29.99,ENE,66,5.0,8.0,72,0.00,,,0.00,9.000000,,2013-05-23 17:11:00,
2013-05-23 07:33:00,79.0,65.0,30.00,ENE,64,5.0,7.0,63,0.00,,,0.00,111.000000,,2013-05-23 17:33:00,
2013-05-23 07:43:00,79.0,65.0,30.00,ENE,64,5.0,7.0,63,0.00,,,0.00,111.000000,,2013-05-23 17:43:00,
2013-05-23 07:52:00,79.0,65.0,30.00,ENE,64,5.0,7.0,63,0.00,,,0.00,111.000000,,2013-05-23 17:52:00,
2013-05-23 08:01:00,79.0,65.0,30.00,ENE,64,5.0,7.0,63,0.00,,,0.00,111.000000,,2013-05-23 18:01:00,
2013-05-23 08:11:00,79.0,65.0,30.00,ENE,64,5.0,7.0,63,0.00,,,0.00,111.000000,,2013-05-23 18:11:00,
2013-05-23 08:32:00,82.0,69.0,30.02,WSW,258,5.0,7.0,64,0.00,,,0.00,303.000000,,2013-05-23 18:32:00,
2013-05-23 08:42:00,82.0,69.0,30.02,WSW,258,5.0,7.0,64,0.00,,,0.00,303.000000,,2013-05-23 18:42:00,
2013-05-23 08:52:00,82.0,69.0,30.02,WSW,258,5.0,7.0,64,0.00,,,0.00,303.000000,,2013-05-23 18:52:00,
2013-05-23 09:01:00,82.0,69.0,30.02,WSW,258,5.0,7.0,64,0.00,,,0.00,303.000000,,2013-05-23 19:01:00,
2013-05-23 09:11:00,82.0,69.0,30.02,WSW,258,5.0,7.0,64,0.00,,,0.00,303.000000,,2013-05-23 19:11:00,
2013-05-23 09:32:00,81.0,70.0,30.02,SW,222,7.0,9.0,70,0.00,,,0.00,433.000000,,2013-05-23 19:32:00,
2013-05-23 09:42:00,81.0,70.0,30.02,SW,222,7.0,9.0,70,0.00,,,0.00,433.000000,,2013-05-23 19:42:00,
2013-05-23 09:52:00,81.0,70.0,30.02,SW,222,7.0,9.0,70,0.00,,,0.00,433.000000,,2013-05-23 19:52:00,
2013-05-23 10:02:00,81.0,70.0,30.02,SW,222,7.0,9.0,70,0.00,,,0.00,433.000000,,2013-05-23 20:02:00,
2013-05-23 10:11:00,81.0,70.0,30.02,SW,222,7.0,9.0,70,0.00,,,0.00,433.000000,,2013-05-23 20:11:00,
2013-05-23 10:32:00,83.0,70.0,30.02,SW,217,7.0,11.0,66,0.00,,,0.00,392.000000,,2013-05-23 20:32:00,
2013-05-23 10:42:00,83.0,70.0,30.02,SW,217,7.0,11.0,66,0.00,,,0.00,392.000000,,2013-05-23 20:42:00,
2013-05-23 10:52:00,83.0,70.0,30.02,SW,217,7.0,11.0,66,0.00,,,0.00,392.000000,,2013-05-23 20:52:00,
2013-05-23 11:01:00,83.0,70.0,30.02,SW,217,7.0,11.0,66,0.00,,,0.00,392.000000,,2013-05-23 21:01:00,
2013-05-23 11:11:00,83.0,70.0,30.02,SW,217,7.0,11.0,66,0.00,,,0.00,392.000000,,2013-05-23 21:11:00,
2013-05-23 11:33:00,83.0,71.0,30.00,SW,236,8.0,12.0,67,0.00,,,0.00,461.000000,,2013-05-23 21:33:00,
2013-05-23 11:43:00,83.0,71.0,30.00,SW,236,8.0,12.0,67,0.00,,,0.00,461.000000,,2013-05-23 21:43:00,
2013-05-23 11:53:00,83.0,71.0,30.00,SW,236,8.0,12.0,67,0.00,,,0.00,461.000000,,2013-05-23 21:53:00,
2013-05-23 12:02:00,83.0,71.0,30.00,SW,236,8.0,12.0,67,0.00,,,0.00,461.000000,,2013-05-23 22:02:00,
2013-05-23 12:12:00,83.0,71.0,30.00,SW,236,8.0,12.0,67,0.00,,,0.00,461.000000,,2013-05-23 22:12:00,
2013-05-23 12:33:00,83.0,69.0,29.99,SW,222,7.0,12.0,63,0.00,,,0.00,497.000000,,2013-05-23 22:33:00,
2013-05-23 12:42:00,83.0,69.0,29.99,SW,222,7.0,12.0,63,0.00,,,0.00,497.000000,,2013-05-23 22:42:00,
2013-05-23 12:52:00,83.0,69.0,29.99,SW,222,7.0,12.0,63,0.00,,,0.00,497.000000,,2013-05-23 22:52:00,
2013-05-23 13:01:00,83.0,69.0,29.99,SW,222,7.0,12.0,63,0.00,,,0.00,497.000000,,2013-05-23 23:01:00,
2013-05-23 13:11:00,83.0,69.0,29.99,SW,222,7.0,12.0,63,0.00,,,0.00,497.000000,,2013-05-23 23:11:00,
2013-05-23 13:32:00,84.0,70.0,29.97,SW,224,9.0,12.0,63,0.00,,,0.00,671.000000,,2013-05-23 23:32:00,
2013-05-23 13:42:00,84.0,70.0,29.97,SW,224,9.0,12.0,63,0.00,,,0.00,671.000000,,2013-05-23 23:42:00,
2013-05-23 13:52:00,84.0,70.0,29.97,SW,224,9.0,12.0,63,0.00,,,0.00,671.000000,,2013-05-23 23:52:00,
2013-05-23 14:01:00,84.0,70.0,29.97,SW,224,9.0,12.0,63,0.00,,,0.00,671.000000,,2013-05-24 00:01:00,
2013-05-23 14:11:00,84.0,70.0,29.97,SW,224,9.0,12.0,63,0.00,,,0.00,671.000000,,2013-05-24 00:11:00,
2013-05-23 14:32:00,85.0,70.0,29.96,South,191,8.0,15.0,62,0.00,,,-99.99,860.000000,,2013-05-24 00:32:00,
2013-05-23 14:42:00,85.0,70.0,29.96,South,191,8.0,15.0,62,0.00,,,-99.99,860.000000,,2013-05-24 00:42:00,
2013-05-23 14:52:00,85.0,70.0,29.96,South,191,8.0,15.0,62,0.00,,,-99.99,860.000000,,2013-05-24 00:52:00,
2013-05-23 15:01:00,85.0,70.0,29.96,South,191,8.0,15.0,62,0.00,,,-99.99,860.000000,,2013-05-24 01:01:00,
2013-05-23 15:12:00,85.0,70.0,29.96,South,191,8.0,15.0,62,0.00,,,-99.99,860.000000,,2013-05-24 01:12:00,
2013-05-23 15:32:00,84.0,71.0,29.96,SSW,201,11.0,16.0,65,0.00,,,0.00,778.000000,,2013-05-24 01:32:00,
2013-05-23 15:42:00,84.0,71.0,29.96,SSW,201,11.0,16.0,65,0.00,,,0.00,778.000000,,2013-05-24 01:42:00,
2013-05-23 15:52:00,84.0,71.0,29.96,SSW,201,11.0,16.0,65,0.00,,,0.00,778.000000,,2013-05-24 01:52:00,
2013-05-23 16:01:00,84.0,71.0,29.96,SSW,201,11.0,16.0,65,0.00,,,0.00,778.000000,,2013-05-24 02:01:00,
2013-05-23 16:11:00,84.0,71.0,29.96,SSW,201,11.0,16.0,65,0.00,,,0.00,778.000000,,2013-05-24 02:11:00,
2013-05-23 16:32:00,84.0,70.0,29.94,SW,216,11.0,16.0,64,0.00,,,0.00,514.000000,,2013-05-24 02:32:00,
2013-05-23 16:42:00,84.0,70.0,29.94,SW,216,11.0,16.0,64,0.00,,,0.00,514.000000,,2013-05-24 02:42:00,
2013-05-23 16:52:00,84.0,70.0,29.94,SW,216,11.0,16.0,64,0.00,,,0.00,514.000000,,2013-05-24 02:52:00,
2013-05-23 17:02:00,84.0,70.0,29.94,SW,216,11.0,16.0,64,0.00,,,0.00,514.000000,,2013-05-24 03:02:00,
2013-05-23 17:11:00,84.0,70.0,29.94,SW,216,11.0,16.0,64,0.00,,,0.00,514.000000,,2013-05-24 03:11:00,
2013-05-23 17:33:00,83.0,70.0,29.94,SSW,213,10.0,14.0,64,0.00,,,0.00,544.000000,,2013-05-24 03:33:00,
2013-05-23 17:42:00,83.0,70.0,29.94,SSW,213,10.0,14.0,64,0.00,,,0.00,544.000000,,2013-05-24 03:42:00,
2013-05-23 17:53:00,83.0,70.0,29.94,SSW,213,10.0,14.0,64,0.00,,,0.00,544.000000,,2013-05-24 03:53:00,
2013-05-23 18:03:00,83.0,70.0,29.94,SSW,213,10.0,14.0,64,0.00,,,0.00,544.000000,,2013-05-24 04:03:00,
2013-05-23 18:12:00,83.0,70.0,29.94,SSW,213,10.0,14.0,64,0.00,,,0.00,544.000000,,2013-05-24 04:12:00,
2013-05-23 18:33:00,81.0,69.0,29.95,SW,226,7.0,13.0,67,0.00,,,0.00,160.000000,,2013-05-24 04:33:00,
2013-05-23 18:42:00,81.0,69.0,29.95,SW,226,7.0,13.0,67,0.00,,,0.00,160.000000,,2013-05-24 04:42:00,
2013-05-23 18:53:00,81.0,69.0,29.95,SW,226,7.0,13.0,67,0.00,,,0.00,160.000000,,2013-05-24 04:53:00,
2013-05-23 19:02:00,81.0,69.0,29.95,SW,226,7.0,13.0,67,0.00,,,0.00,160.000000,,2013-05-24 05:02:00,
2013-05-23 19:12:00,81.0,69.0,29.95,SW,226,7.0,13.0,67,0.00,,,0.00,160.000000,,2013-05-24 05:12:00,
2013-05-23 19:32:00,80.0,68.0,29.97,SW,232,4.0,11.0,67,0.00,,,0.00,12.000000,,2013-05-24 05:32:00,
2013-05-23 19:42:00,80.0,68.0,29.97,SW,232,4.0,11.0,67,0.00,,,0.00,12.000000,,2013-05-24 05:42:00,
2013-05-23 19:52:00,80.0,68.0,29.97,SW,232,4.0,11.0,67,0.00,,,0.00,12.000000,,2013-05-24 05:52:00,
2013-05-23 20:01:00,80.0,68.0,29.97,SW,232,4.0,11.0,67,0.00,,,0.00,12.000000,,2013-05-24 06:01:00,
2013-05-23 20:11:00,80.0,68.0,29.97,SW,232,4.0,11.0,67,0.00,,,0.00,12.000000,,2013-05-24 06:11:00,
2013-05-23 20:32:00,79.0,68.0,29.99,WSW,237,4.0,6.0,69,0.00,,,0.00,0.000000,,2013-05-24 06:32:00,
2013-05-23 20:42:00,79.0,68.0,29.99,WSW,237,4.0,6.0,69,0.00,,,0.00,0.000000,,2013-05-24 06:42:00,
2013-05-23 20:52:00,79.0,68.0,29.99,WSW,237,4.0,6.0,69,0.00,,,0.00,0.000000,,2013-05-24 06:52:00,
2013-05-23 21:01:00,79.0,68.0,29.99,WSW,237,4.0,6.0,69,0.00,,,0.00,0.000000,,2013-05-24 07:01:00,
2013-05-23 21:11:00,79.0,68.0,29.99,WSW,237,4.0,6.0,69,0.00,,,0.00,0.000000,,2013-05-24 07:11:00,
2013-05-23 21:32:00,78.0,69.0,30.00,NE,41,2.0,4.0,74,0.00,,,0.00,0.000000,,2013-05-24 07:32:00,
2013-05-23 21:42:00,78.0,69.0,30.00,NE,41,2.0,4.0,74,0.00,,,0.00,0.000000,,2013-05-24 07:42:00,
2013-05-23 21:52:00,78.0,69.0,30.00,NE,41,2.0,4.0,74,0.00,,,0.00,0.000000,,2013-05-24 07:52:00,
2013-05-23 22:02:00,78.0,69.0,30.00,NE,41,2.0,4.0,74,0.00,,,0.00,0.000000,,2013-05-24 08:02:00,
2013-05-23 22:11:00,78.0,69.0,30.00,NE,41,2.0,4.0,74,0.00,,,0.00,0.000000,,2013-05-24 08:11:00,
2013-05-23 22:33:00,77.0,68.0,30.00,NE,49,4.0,6.0,75,0.00,,,0.00,0.000000,,2013-05-24 08:33:00,
2013-05-23 22:42:00,77.0,68.0,30.00,NE,49,4.0,6.0,75,0.00,,,0.00,0.000000,,2013-05-24 08:42:00,
2013-05-23 22:52:00,77.0,68.0,30.00,NE,49,4.0,6.0,75,0.00,,,0.00,0.000000,,2013-05-24 08:52:00,
2013-05-23 23:01:00,77.0,68.0,30.00,NE,49,4.0,6.0,75,0.00,,,0.00,0.000000,,2013-05-24 09:01:00,
2013-05-23 23:11:00,77.0,68.0,30.00,NE,49,4.0,6.0,75,0.00,,,0.00,0.000000,,2013-05-24 09:11:00,
2013-05-23 23:33:00,77.0,67.0,30.02,East,80,7.0,10.0,71,0.00,,,0.00,0.000000,,2013-05-24 09:33:00,
2013-05-23 23:42:00,77.0,67.0,30.02,East,80,7.0,10.0,71,0.00,,,0.00,0.000000,,2013-05-24 09:42:00,
2013-05-23 23:53:00,77.0,67.0,30.02,East,80,7.0,10.0,71,0.00,,,0.00,0.000000,,2013-05-24 09:53:00,